Westervoort, Netherlands
Current Conditions -  °F | °C
As of 4:25 PM on Monday 24 Nov 2014 (Local Time) from EHDL Reporting Station
Few Clouds Few Clouds  
Wind Chill: 45°   Ceiling: Unl
Heat Index: 45°   Visibility: 6mi
Dew Point: 41°   Wind: 3mph
Humidity: 87%   Direction: 230°SW
Pressure: 30.27"   Gusts: NA
Location:  51.96°N, 5.97°E
Report Text: EHDL 241525Z AUTO 23003KT 9999 FEW120 07/05 Q1025 BLU
Loading
Personal Weather Stations






























Interactive Weather Map New forecast layout! Learn more

10-Day Weather Forecast

Advertisements
Track Severe Weather on mobile